createdAt,value
2018-03-15T00:00:51.056Z,19.20
2018-03-15T00:03:25.141Z,16.77
2018-03-15T00:05:53.108Z,19.67
2018-03-15T00:08:21.098Z,18.83
2018-03-15T00:10:49.102Z,12.65
2018-03-15T00:13:17.262Z,17.40
2018-03-15T00:15:45.216Z,16.85
2018-03-15T00:18:13.136Z,14.50
2018-03-15T00:20:41.023Z,17.20
2018-03-15T00:23:08.891Z,18.60
2018-03-15T00:25:36.774Z,19.60
2018-03-15T00:28:04.692Z,21.12
2018-03-15T00:30:32.565Z,19.00
2018-03-15T00:33:00.442Z,17.05
2018-03-15T00:35:28.334Z,18.62
2018-03-15T00:37:56.198Z,16.80
2018-03-15T00:40:24.068Z,17.70
2018-03-15T00:42:51.939Z,23.80
2018-03-15T00:45:19.810Z,16.98
2018-03-15T00:47:47.691Z,18.58
2018-03-15T00:50:15.574Z,18.62
2018-03-15T00:52:43.455Z,16.17
2018-03-15T00:55:11.355Z,21.10
2018-03-15T00:57:39.234Z,17.70
2018-03-15T01:00:07.095Z,17.92
2018-03-15T01:02:34.976Z,21.98
2018-03-15T01:05:02.881Z,17.80
2018-03-15T01:07:30.747Z,18.95
2018-03-15T01:09:58.619Z,17.35
2018-03-15T01:12:26.516Z,15.82
2018-03-15T01:14:54.390Z,20.67
2018-03-15T01:17:22.263Z,19.00
2018-03-15T01:19:50.141Z,14.40
2018-03-15T01:22:18.010Z,23.35
2018-03-15T01:24:45.901Z,23.02
2018-03-15T01:27:13.763Z,18.30
2018-03-15T01:29:41.618Z,19.15
2018-03-15T01:32:09.521Z,18.98
2018-03-15T01:34:37.413Z,20.25
2018-03-15T01:37:05.287Z,19.95
2018-03-15T01:39:33.167Z,23.70
2018-03-15T01:42:01.035Z,19.87
2018-03-15T01:44:28.994Z,19.65
2018-03-15T01:46:56.887Z,22.83
2018-03-15T01:49:24.828Z,20.58
2018-03-15T01:51:52.647Z,22.87
2018-03-15T01:54:20.551Z,21.02
2018-03-15T01:56:48.449Z,19.23
2018-03-15T01:59:16.335Z,19.55
2018-03-15T02:01:44.338Z,27.25
2018-03-15T02:04:12.227Z,20.12
2018-03-15T02:06:40.104Z,25.37
2018-03-15T02:09:08.358Z,22.90
2018-03-15T02:11:36.226Z,17.83
2018-03-15T02:14:04.107Z,20.37
2018-03-15T02:16:31.983Z,21.95
2018-03-15T02:18:59.942Z,19.40
2018-03-15T02:21:27.813Z,21.50
2018-03-15T02:23:55.687Z,20.40
2018-03-15T02:26:23.586Z,21.02
2018-03-15T02:28:53.519Z,20.95
2018-03-15T02:31:21.405Z,18.40
2018-03-15T02:33:49.276Z,22.58
2018-03-15T02:36:17.155Z,21.05
2018-03-15T02:38:45.034Z,22.83
2018-03-15T02:41:12.910Z,16.65
2018-03-15T02:43:41.815Z,20.27
2018-03-15T02:46:09.798Z,22.08
2018-03-15T02:48:37.685Z,19.12
2018-03-15T02:51:06.585Z,22.60
2018-03-15T02:53:34.463Z,17.05
2018-03-15T02:56:02.340Z,15.27
2018-03-15T02:58:30.213Z,19.08
2018-03-15T03:00:58.092Z,19.12
2018-03-15T03:03:25.978Z,22.55
2018-03-15T03:05:53.855Z,17.75
2018-03-15T03:08:21.752Z,17.45
2018-03-15T03:10:49.627Z,20.50
2018-03-15T03:13:17.489Z,17.52
2018-03-15T03:15:45.363Z,17.00
2018-03-15T03:18:13.242Z,20.25
2018-03-15T03:20:41.103Z,18.55
2018-03-15T03:23:08.983Z,19.77
2018-03-15T03:25:36.899Z,18.73
2018-03-15T03:28:04.767Z,21.95
2018-03-15T03:30:32.650Z,20.15
2018-03-15T03:33:00.532Z,23.98
2018-03-15T03:35:28.395Z,18.17
2018-03-15T03:37:56.264Z,20.50
2018-03-15T03:40:24.130Z,19.42
2018-03-15T03:42:52.011Z,22.92
2018-03-15T03:45:20.891Z,17.98
2018-03-15T03:47:48.771Z,22.00
2018-03-15T03:50:16.653Z,23.98
2018-03-15T03:52:44.538Z,21.90
2018-03-15T03:55:12.461Z,19.10
2018-03-15T03:57:40.347Z,20.92
2018-03-15T04:00:08.219Z,19.67
2018-03-15T04:02:36.095Z,20.65
2018-03-15T04:05:03.960Z,17.70
2018-03-15T04:07:31.835Z,26.17
2018-03-15T04:09:59.723Z,17.62
2018-03-15T04:12:27.582Z,18.10
2018-03-15T04:14:55.459Z,19.10
2018-03-15T04:17:23.334Z,17.70
2018-03-15T04:19:51.208Z,20.73
2018-03-15T04:22:19.078Z,21.80
2018-03-15T04:24:46.962Z,20.90
2018-03-15T04:27:14.818Z,16.90
2018-03-15T04:29:42.693Z,24.45
2018-03-15T04:32:10.555Z,16.42
2018-03-15T04:34:38.435Z,20.98
2018-03-15T04:37:06.343Z,20.80
2018-03-15T04:39:34.227Z,20.52
2018-03-15T04:42:02.096Z,21.60
2018-03-15T04:44:29.974Z,18.33
2018-03-15T04:46:57.842Z,19.65
2018-03-15T04:49:25.711Z,20.40
2018-03-15T04:51:53.579Z,19.90
2018-03-15T04:54:21.447Z,20.80
2018-03-15T04:56:49.326Z,19.80
2018-03-15T04:59:17.202Z,21.45
2018-03-15T05:01:45.095Z,23.10
2018-03-15T05:04:12.955Z,22.15
2018-03-15T05:06:40.834Z,20.20
2018-03-15T05:09:09.046Z,20.15
2018-03-15T05:11:37.934Z,16.70
2018-03-15T05:14:05.831Z,19.40
2018-03-15T05:16:33.711Z,19.52
2018-03-15T05:19:01.579Z,23.02
2018-03-15T05:21:29.455Z,21.17
2018-03-15T05:23:57.347Z,19.42
2018-03-15T05:26:25.203Z,22.05
2018-03-15T05:28:53.075Z,22.52
2018-03-15T05:31:20.982Z,20.05
2018-03-15T05:33:48.842Z,22.00
2018-03-15T05:36:16.731Z,21.90
2018-03-15T05:38:44.608Z,23.62
2018-03-15T05:41:12.501Z,18.98
2018-03-15T05:43:40.382Z,17.12
2018-03-15T05:46:08.284Z,19.30
2018-03-15T05:48:36.138Z,20.45
2018-03-15T05:51:04.013Z,19.08
2018-03-15T05:53:31.891Z,22.05
2018-03-15T05:55:59.760Z,19.27
2018-03-15T05:58:27.647Z,17.58
2018-03-15T06:00:55.555Z,21.20
2018-03-15T06:03:23.426Z,21.50
2018-03-15T06:05:51.332Z,18.55
2018-03-15T06:08:19.249Z,14.93
2018-03-15T06:10:47.139Z,19.58
2018-03-15T06:13:16.144Z,18.15
2018-03-15T06:15:44.074Z,20.30
2018-03-15T06:18:11.903Z,19.98
2018-03-15T06:20:39.783Z,15.90
2018-03-15T06:23:07.664Z,17.70
2018-03-15T06:25:35.527Z,21.00
2018-03-15T06:28:03.399Z,25.40
2018-03-15T06:30:31.300Z,20.35
2018-03-15T06:32:59.177Z,18.48
2018-03-15T06:35:27.059Z,17.85
2018-03-15T06:37:54.958Z,17.10
2018-03-15T06:40:22.811Z,20.48
2018-03-15T06:42:50.691Z,22.40
2018-03-15T06:45:18.565Z,20.70
2018-03-15T06:47:46.423Z,22.10
2018-03-15T06:50:14.301Z,20.73
2018-03-15T06:52:42.180Z,19.42
2018-03-15T06:55:10.060Z,17.92
2018-03-15T06:57:37.949Z,15.85
2018-03-15T07:00:05.835Z,14.63
2018-03-15T07:02:33.699Z,20.25
2018-03-15T07:05:01.577Z,21.12
2018-03-15T07:07:29.456Z,18.37
2018-03-15T07:09:57.336Z,19.70
2018-03-15T07:12:25.208Z,21.95
2018-03-15T07:14:53.090Z,18.52
2018-03-15T07:17:20.970Z,20.33
2018-03-15T07:19:48.859Z,19.05
2018-03-15T07:22:16.754Z,16.48
2018-03-15T07:24:44.615Z,16.85
2018-03-15T07:27:12.503Z,20.02
2018-03-15T07:29:40.383Z,18.08
2018-03-15T07:32:08.243Z,17.60
2018-03-15T07:34:36.159Z,17.90
2018-03-15T07:37:04.671Z,15.32
2018-03-15T07:39:32.694Z,23.38
2018-03-15T07:42:00.680Z,14.13
2018-03-15T07:44:28.672Z,18.05
2018-03-15T07:46:56.663Z,18.35
2018-03-15T07:49:24.655Z,22.85
2018-03-15T07:51:52.903Z,18.55
2018-03-15T07:54:20.916Z,16.25
2018-03-15T07:56:48.904Z,17.67
2018-03-15T07:59:16.864Z,17.90
2018-03-15T08:01:44.864Z,16.10
2018-03-15T08:04:12.852Z,15.35
2018-03-15T08:06:40.850Z,14.57
2018-03-15T08:09:08.872Z,16.20
2018-03-15T08:11:36.864Z,19.58
2018-03-15T08:14:04.857Z,15.50
2018-03-15T08:16:32.856Z,16.45
2018-03-15T08:19:00.843Z,16.10
2018-03-15T08:21:28.847Z,20.00
2018-03-15T08:23:56.838Z,18.08
2018-03-15T08:26:24.800Z,20.12
2018-03-15T08:28:52.823Z,20.52
2018-03-15T08:31:20.816Z,17.77
2018-03-15T08:33:48.817Z,17.27
2018-03-15T08:36:16.808Z,17.12
2018-03-15T08:38:44.820Z,16.90
2018-03-15T08:41:12.824Z,19.42
2018-03-15T08:43:40.839Z,16.73
2018-03-15T08:46:09.166Z,23.33
2018-03-15T08:48:37.284Z,21.95
2018-03-15T08:51:05.462Z,19.90
2018-03-15T08:53:33.421Z,14.50
2018-03-15T08:56:01.654Z,14.03
2018-03-15T08:58:29.706Z,13.77
2018-03-15T09:00:57.888Z,13.85
2018-03-15T09:03:26.007Z,16.70
2018-03-15T09:05:54.003Z,17.97
2018-03-15T09:08:21.977Z,15.43
2018-03-15T09:10:49.965Z,13.40
2018-03-15T09:13:17.978Z,16.13
2018-03-15T09:15:45.981Z,10.87
2018-03-15T09:18:13.997Z,15.07
2018-03-15T09:20:41.997Z,16.97
2018-03-15T09:23:10.003Z,16.90
2018-03-15T09:25:38.000Z,18.03
2018-03-15T09:28:05.984Z,15.33
2018-03-15T09:30:34.010Z,16.10
2018-03-15T09:33:03.131Z,17.23
2018-03-15T09:35:31.178Z,16.33
2018-03-15T09:37:59.240Z,17.97
2018-03-15T09:40:27.244Z,17.37
2018-03-15T09:42:55.280Z,15.60
2018-03-15T09:45:23.256Z,19.30
2018-03-15T09:47:51.271Z,18.73
2018-03-15T09:50:19.302Z,14.53
2018-03-15T09:52:47.360Z,17.13
2018-03-15T09:55:15.371Z,14.77
2018-03-15T09:57:43.345Z,16.63
2018-03-15T10:00:11.328Z,14.10
2018-03-15T10:02:39.359Z,16.83
2018-03-15T10:05:07.367Z,16.83
2018-03-15T10:07:35.337Z,17.23
2018-03-15T10:10:03.356Z,17.83
2018-03-15T10:12:31.360Z,17.50
2018-03-15T10:14:59.342Z,17.90
2018-03-15T10:17:27.374Z,16.30
2018-03-15T10:19:55.388Z,15.40
2018-03-15T10:22:23.347Z,15.57
2018-03-15T10:24:51.339Z,12.80
2018-03-15T10:27:19.383Z,15.60
2018-03-15T10:29:47.494Z,14.20
2018-03-15T10:32:16.568Z,14.03
2018-03-15T10:34:44.619Z,13.20
2018-03-15T10:37:12.535Z,14.00
2018-03-15T10:39:40.533Z,11.67
2018-03-15T10:42:08.552Z,17.73
2018-03-15T10:44:36.516Z,13.43
2018-03-15T10:47:04.528Z,13.20
2018-03-15T10:49:33.587Z,11.37
2018-03-15T10:52:01.591Z,15.13
2018-03-15T10:54:29.592Z,14.23
2018-03-15T10:56:57.565Z,11.37
2018-03-15T10:59:25.577Z,12.97
2018-03-15T11:01:59.927Z,11.37
2018-03-15T11:04:33.877Z,12.93
2018-03-15T11:07:03.820Z,16.57
2018-03-15T11:09:32.925Z,12.40
2018-03-15T11:12:00.874Z,12.63
2018-03-15T11:14:28.909Z,12.30
2018-03-15T11:16:56.907Z,10.47
2018-03-15T11:19:24.875Z,18.43
2018-03-15T11:21:52.895Z,10.67
2018-03-15T11:24:20.892Z,10.60
2018-03-15T11:26:48.900Z,11.73
2018-03-15T11:29:16.892Z,10.60
2018-03-15T11:31:44.892Z,12.47
2018-03-15T11:34:13.140Z,8.80
2018-03-15T11:36:41.119Z,10.07
2018-03-15T11:39:09.123Z,10.20
2018-03-15T11:41:37.124Z,9.33
2018-03-15T11:44:05.091Z,10.73
2018-03-15T11:46:33.140Z,12.23
2018-03-15T11:49:01.129Z,11.20
2018-03-15T11:51:29.128Z,10.40
2018-03-15T11:53:58.204Z,9.43
2018-03-15T11:56:26.199Z,7.83
2018-03-15T11:58:54.211Z,9.90
2018-03-15T12:01:22.232Z,8.43
2018-03-15T12:03:50.191Z,10.73
2018-03-15T12:06:18.227Z,10.60
2018-03-15T12:08:46.268Z,10.13
2018-03-15T12:11:14.235Z,9.93
2018-03-15T12:13:42.273Z,8.13
2018-03-15T12:16:10.284Z,10.43
2018-03-15T12:18:38.252Z,9.03
2018-03-15T12:21:06.228Z,7.60
2018-03-15T12:23:34.208Z,9.33
2018-03-15T12:26:02.176Z,10.23
2018-03-15T12:28:30.160Z,10.80
2018-03-15T12:30:58.130Z,10.67
2018-03-15T12:33:26.115Z,8.60
2018-03-15T12:35:54.080Z,7.23
2018-03-15T12:38:22.092Z,10.20
2018-03-15T12:40:50.068Z,7.77
2018-03-15T12:43:18.056Z,8.00
2018-03-15T12:45:46.047Z,8.93
2018-03-15T12:48:14.021Z,8.83
2018-03-15T12:50:42.013Z,11.10
2018-03-15T12:53:09.980Z,10.40
2018-03-15T12:55:37.924Z,7.87
2018-03-15T12:58:05.926Z,10.60
2018-03-15T13:00:33.940Z,7.93
2018-03-15T13:03:01.913Z,10.10
2018-03-15T13:05:29.910Z,7.90
2018-03-15T13:07:57.872Z,12.27
2018-03-15T13:10:25.832Z,8.37
2018-03-15T13:12:53.840Z,7.20
2018-03-15T13:15:22.903Z,10.03
2018-03-15T13:17:50.903Z,9.87
2018-03-15T13:20:18.959Z,8.07
2018-03-15T13:22:46.990Z,10.20
2018-03-15T13:25:14.971Z,7.60
2018-03-15T13:27:42.964Z,7.87
2018-03-15T13:30:10.962Z,10.80
2018-03-15T13:32:38.968Z,7.07
2018-03-15T13:35:06.950Z,5.60
2018-03-15T13:37:34.947Z,7.17
2018-03-15T13:40:02.944Z,6.90
2018-03-15T13:42:30.920Z,8.33
2018-03-15T13:44:59.005Z,13.23
2018-03-15T13:47:26.999Z,8.00
2018-03-15T13:49:54.986Z,9.17
2018-03-15T13:52:23.016Z,7.50
2018-03-15T13:54:51.040Z,7.23
2018-03-15T13:57:19.039Z,7.67
2018-03-15T13:59:47.008Z,7.60
2018-03-15T14:02:14.989Z,8.63
2018-03-15T14:04:42.996Z,7.03
2018-03-15T14:07:11.042Z,11.60
2018-03-15T14:09:39.024Z,8.03
2018-03-15T14:12:07.032Z,8.03
2018-03-15T14:14:35.037Z,6.00
2018-03-15T14:17:03.006Z,6.70
2018-03-15T14:19:31.032Z,7.00
2018-03-15T14:21:59.131Z,6.00
2018-03-15T14:24:27.104Z,7.07
2018-03-15T14:26:55.108Z,11.03
2018-03-15T14:29:23.124Z,9.23
2018-03-15T14:31:51.092Z,5.70
2018-03-15T14:34:19.056Z,7.77
2018-03-15T14:36:47.037Z,7.70
2018-03-15T14:39:14.982Z,9.17
2018-03-15T14:41:42.928Z,8.40
2018-03-15T14:44:10.917Z,8.90
2018-03-15T14:46:38.953Z,7.47
2018-03-15T14:49:06.912Z,7.07
2018-03-15T14:51:34.892Z,6.93
2018-03-15T14:54:02.865Z,8.77
2018-03-15T14:56:30.855Z,9.70
2018-03-15T14:58:58.828Z,8.97
2018-03-15T15:01:26.800Z,6.67
2018-03-15T15:03:54.803Z,6.70
2018-03-15T15:06:22.786Z,6.90
2018-03-15T15:08:50.777Z,10.37
2018-03-15T15:11:18.789Z,7.93
2018-03-15T15:13:46.791Z,8.77
2018-03-15T15:16:14.778Z,8.13
2018-03-15T15:18:42.770Z,8.20
2018-03-15T15:21:10.748Z,6.70
2018-03-15T15:23:38.744Z,7.40
2018-03-15T15:26:06.783Z,8.70
2018-03-15T15:28:34.739Z,10.23
2018-03-15T15:31:02.696Z,10.00
2018-03-15T15:33:30.698Z,6.73
2018-03-15T15:35:58.692Z,9.73
2018-03-15T15:38:26.668Z,8.37
2018-03-15T15:40:54.648Z,8.13
2018-03-15T15:43:22.656Z,9.27
2018-03-15T15:45:50.625Z,6.30
2018-03-15T15:48:18.613Z,7.73
2018-03-15T15:50:46.646Z,7.03
2018-03-15T15:53:14.636Z,8.30
2018-03-15T15:55:42.603Z,6.80
2018-03-15T15:58:10.584Z,6.00
2018-03-15T16:00:38.552Z,7.37
2018-03-15T16:03:06.512Z,6.53
2018-03-15T16:05:34.501Z,7.27
2018-03-15T16:08:02.622Z,7.63
2018-03-15T16:10:31.007Z,8.50
2018-03-15T16:12:59.033Z,6.90
2018-03-15T16:15:27.020Z,4.97
2018-03-15T16:17:55.021Z,8.63
2018-03-15T16:20:23.057Z,8.20
2018-03-15T16:22:51.040Z,7.10
2018-03-15T16:25:19.025Z,7.03
2018-03-15T16:27:47.021Z,5.50
2018-03-15T16:30:15.016Z,6.70
2018-03-15T16:32:42.992Z,6.73
2018-03-15T16:35:10.979Z,5.60
2018-03-15T16:37:38.948Z,5.57
2018-03-15T16:40:06.910Z,8.50
2018-03-15T16:42:34.916Z,6.27
2018-03-15T16:45:02.908Z,8.40
2018-03-15T16:47:30.915Z,6.47
2018-03-15T16:49:58.951Z,8.52
2018-03-15T16:52:26.923Z,8.83
2018-03-15T16:54:54.908Z,9.83
2018-03-15T16:57:22.927Z,6.60
2018-03-15T16:59:50.916Z,7.60
2018-03-15T17:02:18.959Z,7.00
2018-03-15T17:04:47.187Z,6.70
2018-03-15T17:07:15.182Z,7.13
2018-03-15T17:09:44.048Z,6.37
2018-03-15T17:12:12.063Z,9.47
2018-03-15T17:14:40.044Z,5.80
2018-03-15T17:17:11.380Z,8.33
2018-03-15T17:19:39.487Z,8.27
2018-03-15T17:22:07.457Z,10.63
2018-03-15T17:24:35.500Z,9.63
2018-03-15T17:27:03.536Z,7.37
2018-03-15T17:29:31.581Z,8.17
2018-03-15T17:31:59.564Z,9.05
2018-03-15T17:34:27.574Z,8.40
2018-03-15T17:36:55.533Z,8.93
2018-03-15T17:39:24.433Z,10.40
2018-03-15T17:41:52.461Z,9.50
2018-03-15T17:44:20.429Z,8.43
2018-03-15T17:46:48.429Z,8.80
2018-03-15T17:49:16.425Z,11.40
2018-03-15T17:51:44.417Z,9.00
2018-03-15T17:54:12.446Z,8.70
2018-03-15T17:56:40.450Z,8.90
2018-03-15T17:59:08.561Z,9.55
2018-03-15T18:01:36.584Z,10.70
2018-03-15T18:04:04.733Z,9.80
2018-03-15T18:06:32.760Z,8.90
2018-03-15T18:09:00.778Z,8.40
2018-03-15T18:11:28.913Z,7.57
2018-03-15T18:13:58.004Z,9.87
2018-03-15T18:16:26.034Z,8.90
2018-03-15T18:18:54.074Z,9.95
2018-03-15T18:21:22.052Z,9.77
2018-03-15T18:23:50.054Z,6.62
2018-03-15T18:26:18.089Z,7.28
2018-03-15T18:28:46.072Z,12.75
2018-03-15T18:31:14.097Z,10.27
2018-03-15T18:33:42.202Z,10.10
2018-03-15T18:36:10.249Z,8.10
2018-03-15T18:38:38.285Z,9.15
2018-03-15T18:41:06.316Z,9.05
2018-03-15T18:43:34.301Z,12.50
2018-03-15T18:46:02.294Z,8.68
2018-03-15T18:48:30.345Z,9.25
2018-03-15T18:50:58.360Z,9.48
2018-03-15T18:53:26.405Z,10.38
2018-03-15T18:55:54.484Z,8.10
2018-03-15T18:58:22.540Z,9.50
2018-03-15T19:00:50.553Z,9.27
2018-03-15T19:03:18.970Z,9.45
2018-03-15T19:05:47.118Z,8.95
2018-03-15T19:08:15.632Z,10.15
2018-03-15T19:10:43.824Z,11.02
2018-03-15T19:13:11.857Z,8.60
2018-03-15T19:15:39.921Z,11.00
2018-03-15T19:18:07.893Z,8.73
2018-03-15T19:20:35.929Z,8.60
2018-03-15T19:23:04.110Z,9.98
2018-03-15T19:25:32.213Z,10.27
2018-03-15T19:28:00.401Z,10.68
2018-03-15T19:30:28.524Z,8.30
2018-03-15T19:32:56.493Z,10.75
2018-03-15T19:35:24.506Z,9.90
2018-03-15T19:37:52.585Z,9.23
2018-03-15T19:40:20.573Z,11.00
2018-03-15T19:42:48.559Z,9.98
2018-03-15T19:45:16.544Z,11.00
2018-03-15T19:47:44.554Z,10.40
2018-03-15T19:50:12.583Z,10.15
2018-03-15T19:52:40.621Z,12.70
2018-03-15T19:55:08.730Z,10.27
2018-03-15T19:57:37.748Z,9.90
2018-03-15T20:00:05.905Z,11.95
2018-03-15T20:02:33.959Z,10.07
2018-03-15T20:05:02.053Z,8.48
2018-03-15T20:07:30.049Z,9.35
2018-03-15T20:09:58.150Z,10.68
2018-03-15T20:12:26.157Z,12.75
2018-03-15T20:14:54.303Z,11.23
2018-03-15T20:17:22.353Z,9.05
2018-03-15T20:19:50.432Z,10.18
2018-03-15T20:22:24.691Z,10.30
2018-03-15T20:24:53.766Z,10.35
2018-03-15T20:27:27.786Z,11.20
2018-03-15T20:29:55.920Z,9.98
2018-03-15T20:32:30.054Z,10.10
2018-03-15T20:34:58.087Z,10.43
2018-03-15T20:37:26.112Z,11.65
2018-03-15T20:40:00.121Z,13.70
2018-03-15T20:42:28.141Z,11.52
2018-03-15T20:44:56.158Z,12.30
2018-03-15T20:47:30.328Z,10.65
2018-03-15T20:49:58.345Z,9.30
2018-03-15T20:52:26.345Z,10.32
2018-03-15T20:54:54.349Z,11.15
2018-03-15T20:57:22.356Z,12.25
2018-03-15T20:59:50.369Z,10.90
2018-03-15T21:02:18.408Z,9.30
2018-03-15T21:04:46.417Z,10.75
2018-03-15T21:07:14.397Z,13.05
2018-03-15T21:09:42.388Z,11.65
2018-03-15T21:12:10.414Z,13.93
2018-03-15T21:14:38.401Z,12.52
2018-03-15T21:17:06.391Z,11.70
2018-03-15T21:19:34.413Z,10.73
2018-03-15T21:22:02.410Z,10.52
2018-03-15T21:24:30.438Z,10.27
2018-03-15T21:26:58.678Z,11.23
2018-03-15T21:29:26.640Z,10.57
2018-03-15T21:31:54.651Z,9.68
2018-03-15T21:34:22.859Z,13.18
2018-03-15T21:36:50.869Z,12.48
2018-03-15T21:39:18.877Z,11.27
2018-03-15T21:41:46.877Z,11.07
2018-03-15T21:44:14.971Z,13.05
2018-03-15T21:46:42.977Z,11.02
2018-03-15T21:49:11.047Z,12.80
2018-03-15T21:51:39.058Z,11.23
2018-03-15T21:54:07.058Z,12.77
2018-03-15T21:56:35.119Z,11.63
2018-03-15T21:59:03.084Z,16.30
2018-03-15T22:01:31.093Z,14.35
2018-03-15T22:03:59.109Z,12.32
2018-03-15T22:06:27.126Z,12.27
2018-03-15T22:08:55.161Z,13.23
2018-03-15T22:11:23.162Z,14.60
2018-03-15T22:13:51.216Z,14.32
2018-03-15T22:16:19.204Z,12.40
2018-03-15T22:18:47.221Z,12.93
2018-03-15T22:21:15.233Z,11.30
2018-03-15T22:23:43.223Z,11.75
2018-03-15T22:26:11.225Z,13.38
2018-03-15T22:28:39.266Z,15.35
2018-03-15T22:31:07.253Z,13.70
2018-03-15T22:33:35.265Z,14.02
2018-03-15T22:36:03.316Z,11.90
2018-03-15T22:38:31.306Z,15.15
2018-03-15T22:40:59.342Z,14.25
2018-03-15T22:43:27.336Z,12.48
2018-03-15T22:45:55.284Z,12.05
2018-03-15T22:48:23.257Z,14.25
2018-03-15T22:50:51.265Z,14.50
2018-03-15T22:53:19.257Z,20.75
2018-03-15T22:55:47.259Z,13.57
2018-03-15T22:58:15.261Z,12.40
2018-03-15T23:00:43.261Z,13.93
2018-03-15T23:03:11.233Z,12.10
2018-03-15T23:05:39.293Z,13.68
2018-03-15T23:08:07.327Z,12.43
2018-03-15T23:10:35.332Z,13.50
2018-03-15T23:13:03.373Z,13.65
2018-03-15T23:15:31.332Z,15.32
2018-03-15T23:17:59.330Z,11.10
2018-03-15T23:20:27.372Z,13.30
2018-03-15T23:22:55.362Z,18.27
2018-03-15T23:25:23.373Z,12.90
2018-03-15T23:27:52.485Z,19.52
2018-03-15T23:30:20.498Z,15.15
2018-03-15T23:32:48.517Z,14.70
2018-03-15T23:35:16.561Z,14.90
2018-03-15T23:37:44.561Z,12.23
2018-03-15T23:40:14.613Z,17.02
2018-03-15T23:42:42.625Z,18.95
2018-03-15T23:45:10.612Z,17.95
2018-03-15T23:47:38.601Z,12.60
2018-03-15T23:50:06.593Z,17.12
2018-03-15T23:52:34.619Z,17.95
2018-03-15T23:55:02.627Z,13.98
2018-03-15T23:57:30.652Z,15.07
2018-03-15T23:59:58.646Z,13.02
